createdAt,value
2023-11-28T00:02:58.217Z,99989.50
2023-11-28T00:06:00.974Z,99984.00
2023-11-28T00:09:03.961Z,100006.03
2023-11-28T00:12:08.713Z,100016.41
2023-11-28T00:15:11.946Z,100004.25
2023-11-28T00:18:14.703Z,100020.28
2023-11-28T00:21:17.456Z,100015.47
2023-11-28T00:24:20.056Z,100022.09
2023-11-28T00:27:23.969Z,100028.75
2023-11-28T00:30:26.618Z,100033.44
2023-11-28T00:33:29.280Z,100036.53
2023-11-28T00:36:31.950Z,100043.50
2023-11-28T00:39:34.830Z,100064.75
2023-11-28T00:42:38.807Z,100083.53
2023-11-28T00:45:41.446Z,100090.03
2023-11-28T00:48:44.321Z,100070.28
2023-11-28T00:51:46.959Z,100077.72
2023-11-28T00:54:49.617Z,100083.88
2023-11-28T00:57:54.539Z,100091.66
2023-11-28T01:00:57.210Z,100095.53
2023-11-28T01:03:59.895Z,100096.22
2023-11-28T01:07:02.958Z,100107.22
2023-11-28T01:10:06.416Z,100123.75
2023-11-28T01:13:10.370Z,100137.03
2023-11-28T01:16:13.430Z,100137.97
2023-11-28T01:19:16.064Z,100120.31
2023-11-28T01:22:18.706Z,100141.88
2023-11-28T01:25:21.332Z,100150.13
2023-11-28T01:28:25.401Z,100148.03
2023-11-28T01:31:29.270Z,100164.72
2023-11-28T01:34:32.110Z,100162.75
2023-11-28T01:37:34.730Z,100172.63
2023-11-28T01:40:37.330Z,100184.63
2023-11-28T01:43:41.293Z,100192.09
2023-11-28T01:46:44.099Z,100171.38
2023-11-28T01:49:46.734Z,100204.56
2023-11-28T01:52:49.767Z,100206.50
2023-11-28T01:55:52.548Z,100212.16
2023-11-28T01:58:56.511Z,100220.59
2023-11-28T02:01:59.321Z,100232.22
2023-11-28T02:05:02.108Z,100233.06
2023-11-28T02:08:05.291Z,100244.41
2023-11-28T02:11:08.055Z,100257.84
2023-11-28T02:14:12.599Z,100242.44
2023-11-28T02:17:16.351Z,100268.53
2023-11-28T02:20:18.982Z,100271.44
2023-11-28T02:23:21.714Z,100276.44
2023-11-28T02:26:26.201Z,100290.53
2023-11-28T02:29:28.790Z,100291.97
2023-11-28T02:32:31.431Z,100294.56
2023-11-28T02:35:34.147Z,100301.03
2023-11-28T02:38:36.845Z,100286.91
2023-11-28T02:41:40.837Z,100314.44
2023-11-28T02:44:44.259Z,100321.88
2023-11-28T02:47:46.896Z,100326.91
2023-11-28T02:50:49.506Z,100330.47
2023-11-28T02:53:52.098Z,100323.34
2023-11-28T02:56:56.086Z,100323.47
2023-11-28T02:59:58.670Z,100346.97
2023-11-28T03:03:01.485Z,100354.22
2023-11-28T03:06:04.469Z,100362.00
2023-11-28T03:09:07.131Z,100369.75
2023-11-28T03:12:11.130Z,100369.38
2023-11-28T03:15:13.723Z,100378.91
2023-11-28T03:18:16.330Z,100384.34
2023-11-28T03:21:18.913Z,100385.31
2023-11-28T03:24:21.591Z,100382.81
2023-11-28T03:27:25.597Z,100393.81
2023-11-28T03:30:28.259Z,100390.06
2023-11-28T03:33:31.044Z,100399.94
2023-11-28T03:36:33.622Z,100395.06
2023-11-28T03:39:36.213Z,100400.72
2023-11-28T03:42:40.190Z,100397.75
2023-11-28T03:45:42.799Z,100397.38
2023-11-28T03:48:45.421Z,100417.72
2023-11-28T03:51:48.100Z,100417.56
2023-11-28T03:54:50.760Z,100417.56
2023-11-28T03:57:54.754Z,100424.28
2023-11-28T04:00:57.350Z,100422.06
2023-11-28T04:03:59.992Z,100425.13
2023-11-28T04:07:02.639Z,100444.97
2023-11-28T04:10:05.832Z,100449.16
2023-11-28T04:13:09.825Z,100443.16
2023-11-28T04:16:17.533Z,100448.75
2023-11-28T04:19:20.352Z,100458.13
2023-11-28T04:22:23.010Z,100450.50
2023-11-28T04:25:25.604Z,100459.06
2023-11-28T04:28:29.848Z,100455.50
2023-11-28T04:31:32.521Z,100466.31
2023-11-28T04:34:37.700Z,100467.72
2023-11-28T04:37:40.385Z,100463.44
2023-11-28T04:40:43.079Z,100479.31
2023-11-28T04:43:47.136Z,100495.78
2023-11-28T04:46:50.649Z,100501.28
2023-11-28T04:49:54.520Z,100500.28
2023-11-28T04:52:57.146Z,100496.13
2023-11-28T04:56:00.556Z,100517.78
2023-11-28T04:59:04.988Z,100515.53
2023-11-28T05:02:07.733Z,100515.53
2023-11-28T05:05:10.490Z,100517.78
2023-11-28T05:08:13.742Z,100527.16
2023-11-28T05:11:16.375Z,100527.16
2023-11-28T05:14:22.077Z,100534.06
2023-11-28T05:17:26.047Z,100548.81
2023-11-28T05:20:28.706Z,100557.88
2023-11-28T05:23:31.286Z,100556.22
2023-11-28T05:26:33.865Z,100562.75
2023-11-28T05:29:37.806Z,100568.25
2023-11-28T05:32:40.459Z,100566.81
2023-11-28T05:35:43.119Z,100574.75
2023-11-28T05:38:45.692Z,100580.25
2023-11-28T05:41:48.280Z,100571.50
2023-11-28T05:44:52.261Z,100570.50
2023-11-28T05:47:55.075Z,100579.84
2023-11-28T05:50:57.855Z,100575.97
2023-11-28T05:54:00.502Z,100579.34
2023-11-28T05:57:03.632Z,100582.88
2023-11-28T06:00:09.432Z,100583.13
2023-11-28T06:03:12.086Z,100591.06
2023-11-28T06:06:15.018Z,100588.59
2023-11-28T06:09:17.603Z,100592.47
2023-11-28T06:12:20.176Z,100597.97
2023-11-28T06:15:24.155Z,100602.66
2023-11-28T06:18:27.457Z,100600.19
2023-11-28T06:21:30.037Z,100611.19
2023-11-28T06:24:32.683Z,100613.44
2023-11-28T06:27:35.305Z,100609.16
2023-11-28T06:30:39.339Z,100619.03
2023-11-28T06:33:42.306Z,100632.16
2023-11-28T06:36:44.972Z,100637.44
2023-11-28T06:39:48.576Z,100654.75
2023-11-28T06:42:51.236Z,100657.78
2023-11-28T06:46:00.128Z,100658.09
2023-11-28T06:49:03.750Z,100664.19
2023-11-28T06:52:07.319Z,100666.94
2023-11-28T06:55:10.900Z,100678.53
2023-11-28T06:58:13.504Z,100675.56
2023-11-28T07:01:17.503Z,100695.59
2023-11-28T07:04:20.156Z,100697.84
2023-11-28T07:07:22.771Z,100700.88
2023-11-28T07:10:25.373Z,100708.59
2023-11-28T07:13:28.007Z,100717.16
2023-11-28T07:16:32.434Z,100712.78
2023-11-28T07:19:35.168Z,100710.03
2023-11-28T07:22:37.942Z,100709.22
2023-11-28T07:25:40.586Z,100706.75
2023-11-28T07:28:43.318Z,100720.19
2023-11-28T07:31:47.982Z,100721.00
2023-11-28T07:34:50.705Z,100713.06
2023-11-28T07:37:53.313Z,100719.97
2023-11-28T07:40:56.001Z,100723.22
2023-11-28T07:43:58.851Z,100725.97
2023-11-28T07:47:03.543Z,100713.25
2023-11-28T07:50:07.435Z,100733.69
2023-11-28T07:53:10.105Z,100741.94
2023-11-28T07:56:14.313Z,100738.88
2023-11-28T07:59:16.968Z,100742.16
2023-11-28T08:02:21.144Z,100749.59
2023-11-28T08:05:24.927Z,100755.00
2023-11-28T08:08:27.603Z,100756.00
2023-11-28T08:11:30.273Z,100755.44
2023-11-28T08:14:32.996Z,100765.00
2023-11-28T08:17:37.215Z,100760.94
2023-11-28T08:20:39.879Z,100766.22
2023-11-28T08:23:42.605Z,100765.16
2023-11-28T08:26:45.224Z,100759.47
2023-11-28T08:29:47.919Z,100769.84
2023-11-28T08:32:51.984Z,100777.19
2023-11-28T08:35:54.608Z,100792.69
2023-11-28T08:38:57.231Z,100790.91
2023-11-28T08:42:00.764Z,100801.09
2023-11-28T08:45:03.640Z,100809.00
2023-11-28T08:48:07.735Z,100813.53
2023-11-28T08:51:10.421Z,100817.78
2023-11-28T08:54:13.208Z,100820.50
2023-11-28T08:57:16.913Z,100830.06
2023-11-28T09:00:20.984Z,100824.41
2023-11-28T09:03:25.219Z,100826.50
2023-11-28T09:06:28.007Z,100834.72
2023-11-28T09:09:30.630Z,100831.03
2023-11-28T09:12:33.243Z,100814.28
2023-11-28T09:15:35.840Z,100836.16
2023-11-28T09:18:39.869Z,100824.00
2023-11-28T09:21:42.533Z,100834.59
2023-11-28T09:24:45.156Z,100833.25
2023-11-28T09:27:47.755Z,100844.44
2023-11-28T09:30:50.378Z,100845.88
2023-11-28T09:33:54.842Z,100859.19
2023-11-28T09:36:57.510Z,100856.69
2023-11-28T09:40:00.364Z,100864.94
2023-11-28T09:43:03.111Z,100865.75
2023-11-28T09:46:06.476Z,100865.00
2023-11-28T09:49:10.533Z,100863.56
2023-11-28T09:52:15.383Z,100866.56
2023-11-28T09:55:18.306Z,100861.22
2023-11-28T09:58:21.500Z,100867.09
2023-11-28T10:01:24.546Z,100858.97
2023-11-28T10:04:28.568Z,100865.47
2023-11-28T10:07:33.660Z,100874.69
2023-11-28T10:10:37.276Z,100877.81
2023-11-28T10:13:40.107Z,100886.78
2023-11-28T10:16:43.633Z,100890.38
2023-11-28T10:19:47.720Z,100879.59
2023-11-28T10:22:51.145Z,100886.22
2023-11-28T10:25:53.737Z,100886.81
2023-11-28T10:28:56.373Z,100887.94
2023-11-28T10:31:59.302Z,100885.06
2023-11-28T10:35:03.312Z,100884.28
2023-11-28T10:38:06.023Z,100877.00
2023-11-28T10:41:08.710Z,100883.19
2023-11-28T10:44:11.348Z,100860.09
2023-11-28T10:47:14.857Z,100869.47
2023-11-28T10:50:19.038Z,100858.38
2023-11-28T10:53:22.380Z,100858.72
2023-11-28T10:56:25.015Z,100851.75
2023-11-28T10:59:31.240Z,100861.19
2023-11-28T11:02:33.972Z,100864.06
2023-11-28T11:05:38.029Z,100869.59
2023-11-28T11:08:42.113Z,100875.22
2023-11-28T11:11:44.721Z,100875.53
2023-11-28T11:14:50.082Z,100872.84
2023-11-28T11:17:55.555Z,100850.00
2023-11-28T11:21:01.834Z,100867.19
2023-11-28T11:24:04.889Z,100864.22
2023-11-28T11:27:09.945Z,100864.72
2023-11-28T11:30:13.541Z,100850.94
2023-11-28T11:33:17.857Z,100835.72
2023-11-28T11:36:21.882Z,100848.47
2023-11-28T11:39:24.523Z,100858.00
2023-11-28T11:42:28.216Z,100850.34
2023-11-28T11:45:30.818Z,100852.25
2023-11-28T11:48:34.983Z,100852.56
2023-11-28T11:51:39.012Z,100858.47
2023-11-28T11:54:41.871Z,100859.16
2023-11-28T11:57:44.991Z,100851.31
2023-11-28T12:00:48.369Z,100853.59
2023-11-28T12:03:51.104Z,100848.97
2023-11-28T12:07:04.487Z,100840.69
2023-11-28T12:10:07.794Z,100839.75
2023-11-28T12:13:11.363Z,100845.31
2023-11-28T12:16:14.082Z,100851.75
2023-11-28T12:19:17.129Z,100820.88
2023-11-28T12:22:21.162Z,100851.22
2023-11-28T12:25:25.036Z,100851.38
2023-11-28T12:28:27.915Z,100854.09
2023-11-28T12:31:30.760Z,100853.59
2023-11-28T12:34:34.564Z,100857.53
2023-11-28T12:37:39.838Z,100835.22
2023-11-28T12:40:42.497Z,100849.59
2023-11-28T12:43:45.351Z,100862.06
2023-11-28T12:46:49.318Z,100859.94
2023-11-28T12:49:52.590Z,100868.97
2023-11-28T12:52:56.895Z,100867.31
2023-11-28T12:55:59.578Z,100865.00
2023-11-28T12:59:03.371Z,100868.97
2023-11-28T13:02:06.181Z,100856.75
2023-11-28T13:05:09.249Z,100861.41
2023-11-28T13:08:13.396Z,100854.59
2023-11-28T13:11:17.714Z,100851.34
2023-11-28T13:14:20.538Z,100844.28
2023-11-28T13:17:23.568Z,100836.44
2023-11-28T13:20:26.311Z,100845.22
2023-11-28T13:23:30.805Z,100845.50
2023-11-28T13:26:33.470Z,100852.25
2023-11-28T13:29:39.330Z,100856.41
2023-11-28T13:32:42.605Z,100849.00
2023-11-28T13:35:45.798Z,100847.06
2023-11-28T13:38:49.779Z,100853.06
2023-11-28T13:41:52.403Z,100843.09
2023-11-28T13:44:55.357Z,100839.75
2023-11-28T13:47:58.121Z,100840.81
2023-11-28T13:51:00.821Z,100838.63
2023-11-28T13:54:06.190Z,100850.00
2023-11-28T13:57:08.855Z,100847.00
2023-11-28T14:00:13.130Z,100849.06
2023-11-28T14:03:15.850Z,100844.22
2023-11-28T14:06:18.506Z,100841.88
2023-11-28T14:09:23.603Z,100829.09
2023-11-28T14:12:26.321Z,100846.44
2023-11-28T14:15:28.902Z,100841.97
2023-11-28T14:18:31.700Z,100853.63
2023-11-28T14:21:35.615Z,100849.66
2023-11-28T14:24:39.559Z,100851.06
2023-11-28T14:27:42.578Z,100845.94
2023-11-28T14:30:45.254Z,100853.50
2023-11-28T14:33:47.912Z,100850.00
2023-11-28T14:36:50.580Z,100849.22
2023-11-28T14:39:54.532Z,100854.16
2023-11-28T14:42:57.182Z,100852.09
2023-11-28T14:45:59.872Z,100827.72
2023-11-28T14:49:05.066Z,100841.91
2023-11-28T14:52:07.966Z,100846.47
2023-11-28T14:55:11.920Z,100834.31
2023-11-28T14:58:14.511Z,100842.63
2023-11-28T15:01:17.123Z,100835.91
2023-11-28T15:04:19.902Z,100829.28
2023-11-28T15:07:23.758Z,100832.47
2023-11-28T15:10:27.829Z,100817.22
2023-11-28T15:13:30.416Z,100809.16
2023-11-28T15:16:33.661Z,100812.75
2023-11-28T15:19:40.031Z,100814.91
2023-11-28T15:22:42.656Z,100813.13
2023-11-28T15:25:49.216Z,100809.72
2023-11-28T15:28:52.262Z,100803.03
2023-11-28T15:57:13.494Z,100816.28
2023-11-28T16:00:58.841Z,100810.47
2023-11-28T16:04:01.450Z,100811.34
2023-11-28T16:13:01.534Z,100793.00
2023-11-28T16:16:04.298Z,100790.75
2023-11-28T16:21:05.142Z,100766.41
2023-11-28T16:24:10.077Z,100766.59
2023-11-28T16:28:51.263Z,100763.69
2023-11-28T16:31:53.951Z,100752.81
2023-11-28T16:36:15.011Z,100749.94
2023-11-28T16:39:56.667Z,100764.72
2023-11-28T16:42:59.258Z,100771.88
2023-11-28T16:46:03.411Z,100775.44
2023-11-28T16:49:06.838Z,100769.75
2023-11-28T16:52:10.855Z,100763.25
2023-11-28T16:55:17.046Z,100765.13
2023-11-28T16:58:22.146Z,100758.13
2023-11-28T17:01:24.812Z,100754.22
2023-11-28T17:04:28.484Z,100755.34
2023-11-28T17:07:31.139Z,100753.75
2023-11-28T17:10:36.184Z,100749.84
2023-11-28T17:13:38.878Z,100752.13
2023-11-28T17:16:41.521Z,100748.53
2023-11-28T17:19:44.407Z,100737.00
2023-11-28T17:22:47.035Z,100751.44
2023-11-28T17:25:51.020Z,100750.28
2023-11-28T17:28:53.740Z,100735.47
2023-11-28T17:31:58.758Z,100713.34
2023-11-28T17:35:01.622Z,100717.94
2023-11-28T17:38:06.282Z,100722.03
2023-11-28T17:41:17.244Z,100721.81
2023-11-28T17:44:20.451Z,100720.84
2023-11-28T17:47:26.844Z,100705.56
2023-11-28T17:50:29.748Z,100715.63
2023-11-28T17:53:33.264Z,100711.69
2023-11-28T17:56:37.622Z,100696.88
2023-11-28T17:59:41.384Z,100697.47
2023-11-28T18:02:44.170Z,100692.09
2023-11-28T18:05:46.926Z,100690.09
2023-11-28T18:08:49.836Z,100685.88
2023-11-28T18:11:53.782Z,100670.09
2023-11-28T18:14:56.408Z,100675.13
2023-11-28T18:17:59.147Z,100667.16
2023-11-28T18:21:11.692Z,100656.94
2023-11-28T18:24:21.570Z,100659.19
2023-11-28T18:27:25.826Z,100659.19
2023-11-28T18:30:28.407Z,100645.06
2023-11-28T18:33:31.000Z,100649.44
2023-11-28T18:36:33.612Z,100643.91
2023-11-28T18:39:38.019Z,100645.56
2023-11-28T18:42:43.133Z,100643.09
2023-11-28T18:45:45.830Z,100634.50
2023-11-28T18:48:48.474Z,100641.16
2023-11-28T18:51:51.195Z,100646.38
2023-11-28T18:54:54.372Z,100636.16
2023-11-28T18:57:58.392Z,100633.91
2023-11-28T19:01:01.387Z,100627.75
2023-11-28T19:04:04.375Z,100629.91
2023-11-28T19:07:07.089Z,100635.88
2023-11-28T19:10:10.938Z,100617.09
2023-11-28T19:13:16.426Z,100605.09
2023-11-28T19:16:25.487Z,100613.56
2023-11-28T19:19:29.283Z,100623.34
2023-11-28T19:22:32.116Z,100633.72
2023-11-28T19:25:35.522Z,100613.59
2023-11-28T19:28:42.154Z,100606.66
2023-11-28T19:31:48.934Z,100597.41
2023-11-28T19:34:52.112Z,100601.28
2023-11-28T19:37:54.764Z,100604.03
2023-11-28T19:40:57.516Z,100604.03
2023-11-28T19:44:01.492Z,100576.53
2023-11-28T19:47:05.150Z,100605.78
2023-11-28T19:50:08.670Z,100591.84
2023-11-28T19:53:11.733Z,100584.84
2023-11-28T19:56:14.550Z,100585.94
2023-11-28T19:59:18.634Z,100592.88
2023-11-28T20:02:21.874Z,100585.94
2023-11-28T20:05:25.930Z,100583.50
2023-11-28T20:08:28.574Z,100568.41
2023-11-28T20:11:31.915Z,100558.66
2023-11-28T20:14:35.948Z,100547.16
2023-11-28T20:17:38.670Z,100540.31
2023-11-28T20:20:41.986Z,100535.44
2023-11-28T20:23:44.706Z,100540.00
2023-11-28T20:26:47.852Z,100543.59
2023-11-28T20:29:51.856Z,100538.88
2023-11-28T20:32:54.595Z,100543.75
2023-11-28T20:35:57.216Z,100559.81
2023-11-28T20:39:03.882Z,100557.94
2023-11-28T20:42:06.926Z,100551.31
2023-11-28T20:45:11.313Z,100530.41
2023-11-28T20:48:14.093Z,100539.34
2023-11-28T20:51:17.556Z,100538.06
2023-11-28T20:54:21.197Z,100530.31
2023-11-28T20:57:23.810Z,100524.13
2023-11-28T21:00:27.825Z,100531.31
2023-11-28T21:03:30.429Z,100532.59
2023-11-28T21:06:33.174Z,100526.09
2023-11-28T21:09:35.870Z,100529.19
2023-11-28T21:12:39.648Z,100501.94
2023-11-28T21:15:44.116Z,100482.78
2023-11-28T21:18:46.838Z,100484.91
2023-11-28T21:21:49.870Z,100483.28
2023-11-28T21:24:52.462Z,100475.00
2023-11-28T21:27:55.123Z,100481.00
2023-11-28T21:30:59.165Z,100481.00
2023-11-28T21:34:02.461Z,100477.13
2023-11-28T21:37:05.392Z,100485.72
2023-11-28T21:40:08.968Z,100470.63
2023-11-28T21:43:12.750Z,100481.00
2023-11-28T21:46:18.453Z,100471.94
2023-11-28T21:49:21.072Z,100471.44
2023-11-28T21:52:23.710Z,100457.81
2023-11-28T21:55:28.370Z,100464.78
2023-11-28T21:58:31.093Z,100472.25
2023-11-28T22:01:35.152Z,100461.88
2023-11-28T22:04:37.832Z,100473.88
2023-11-28T22:07:40.707Z,100469.81
2023-11-28T22:10:43.319Z,100468.16
2023-11-28T22:13:46.032Z,100432.97
2023-11-28T22:16:49.998Z,100431.22
2023-11-28T22:19:52.649Z,100467.69
2023-11-28T22:22:56.158Z,100461.22
2023-11-28T22:25:58.943Z,100465.41
2023-11-28T22:29:01.917Z,100450.81
2023-11-28T22:32:06.481Z,100458.63
2023-11-28T22:35:10.570Z,100467.19
2023-11-28T22:38:13.247Z,100454.69
2023-11-28T22:41:16.170Z,100461.50
2023-11-28T22:44:19.075Z,100453.38
2023-11-28T22:47:23.143Z,100468.19
2023-11-28T22:50:29.527Z,100442.38
2023-11-28T22:53:32.407Z,100431.34
2023-11-28T22:56:35.788Z,100427.44
2023-11-28T22:59:51.647Z,100406.84
2023-11-28T23:02:55.870Z,100396.00
2023-11-28T23:05:59.983Z,100386.59
2023-11-28T23:09:02.637Z,100378.78
2023-11-28T23:12:05.355Z,100383.19
2023-11-28T23:15:09.051Z,100373.28
2023-11-28T23:18:13.041Z,100381.91
2023-11-28T23:21:15.797Z,100364.84
2023-11-28T23:24:18.603Z,100356.91
2023-11-28T23:27:21.986Z,100357.41
2023-11-28T23:30:25.417Z,100351.88
2023-11-28T23:33:30.297Z,100336.78
2023-11-28T23:36:33.301Z,100332.09
2023-11-28T23:39:35.961Z,100325.94
2023-11-28T23:42:44.053Z,100323.66
2023-11-28T23:45:52.406Z,100320.09
2023-11-28T23:49:04.511Z,100320.25
2023-11-28T23:52:07.934Z,100311.00
2023-11-28T23:55:10.551Z,100311.97
2023-11-28T23:58:13.206Z,100301.91
